sensor_id;sensor_type;location;lat;lon;timestamp;pressure;altitude;pressure_sealevel;temperature;humidity
13033;BME280;6583;42.632;23.298;2023-04-24T00:01:46;70431.31;;;-146.40;65.98
13033;BME280;6583;42.632;23.298;2023-04-24T00:04:13;70423.22;;;-146.40;65.72
13033;BME280;6583;42.632;23.298;2023-04-24T00:06:43;70413.09;;;-146.40;65.00
13033;BME280;6583;42.632;23.298;2023-04-24T00:09:09;70413.09;;;-146.40;65.76
13033;BME280;6583;42.632;23.298;2023-04-24T00:11:36;70402.97;;;-146.40;64.30
13033;BME280;6583;42.632;23.298;2023-04-24T00:14:03;70396.91;;;-146.40;65.91
13033;BME280;6583;42.632;23.298;2023-04-24T00:16:30;70405.00;;;-146.40;66.00
13033;BME280;6583;42.632;23.298;2023-04-24T00:18:56;70405.00;;;-146.40;66.65
13033;BME280;6583;42.632;23.298;2023-04-24T00:21:23;70409.06;;;-146.40;66.95
13033;BME280;6583;42.632;23.298;2023-04-24T00:23:52;70413.09;;;-146.40;67.49
13033;BME280;6583;42.632;23.298;2023-04-24T00:26:19;70429.28;;;-146.40;67.70
13033;BME280;6583;42.632;23.298;2023-04-24T00:28:46;70449.53;;;-146.40;67.52
13033;BME280;6583;42.632;23.298;2023-04-24T00:31:12;70451.53;;;-146.40;68.02
13033;BME280;6583;42.632;23.298;2023-04-24T00:33:39;70453.56;;;-146.40;68.96
13033;BME280;6583;42.632;23.298;2023-04-24T00:36:06;70463.69;;;-146.40;68.68
13033;BME280;6583;42.632;23.298;2023-04-24T00:38:32;70457.59;;;-146.40;69.61
13033;BME280;6583;42.632;23.298;2023-04-24T00:41:01;70447.50;;;-146.40;69.39
13033;BME280;6583;42.632;23.298;2023-04-24T00:43:27;70449.53;;;-146.40;68.66
13033;BME280;6583;42.632;23.298;2023-04-24T00:45:54;70443.44;;;-146.40;68.22
13033;BME280;6583;42.632;23.298;2023-04-24T00:48:21;70437.38;;;-146.40;67.52
13033;BME280;6583;42.632;23.298;2023-04-24T00:50:48;70431.31;;;-146.40;67.29
13033;BME280;6583;42.632;23.298;2023-04-24T00:53:14;70421.19;;;-146.40;67.67
13033;BME280;6583;42.632;23.298;2023-04-24T00:55:41;70417.16;;;-146.40;67.17
13033;BME280;6583;42.632;23.298;2023-04-24T00:58:09;70413.09;;;-146.40;67.34
13033;BME280;6583;42.632;23.298;2023-04-24T01:00:36;70402.97;;;-146.40;66.51
13033;BME280;6583;42.632;23.298;2023-04-24T01:03:04;70398.94;;;-146.40;65.99
13033;BME280;6583;42.632;23.298;2023-04-24T01:05:32;70396.91;;;-146.40;65.40
13033;BME280;6583;42.632;23.298;2023-04-24T01:07:59;70380.72;;;-146.40;64.10
13033;BME280;6583;42.632;23.298;2023-04-24T01:10:27;70372.63;;;-146.40;64.42
13033;BME280;6583;42.632;23.298;2023-04-24T01:12:55;70366.56;;;-146.40;64.61
13033;BME280;6583;42.632;23.298;2023-04-24T01:15:23;70370.63;;;-146.40;65.22
13033;BME280;6583;42.632;23.298;2023-04-24T01:17:50;70350.38;;;-146.40;67.98
13033;BME280;6583;42.632;23.298;2023-04-24T01:20:17;70354.44;;;-146.40;70.50
13033;BME280;6583;42.632;23.298;2023-04-24T01:22:45;70384.78;;;-146.40;76.66
13033;BME280;6583;42.632;23.298;2023-04-24T01:25:12;70390.84;;;-146.40;78.66
13033;BME280;6583;42.632;23.298;2023-04-24T01:27:39;70415.13;;;-146.40;80.05
13033;BME280;6583;42.632;23.298;2023-04-24T01:30:07;70423.22;;;-146.40;82.26
13033;BME280;6583;42.632;23.298;2023-04-24T01:32:35;70417.16;;;-146.40;83.10
13033;BME280;6583;42.632;23.298;2023-04-24T01:35:03;70433.34;;;-146.40;82.48
13033;BME280;6583;42.632;23.298;2023-04-24T01:37:29;70483.91;;;-146.40;83.65
13033;BME280;6583;42.632;23.298;2023-04-24T01:39:58;70477.84;;;-146.40;84.60
13033;BME280;6583;42.632;23.298;2023-04-24T01:42:25;70489.97;;;-146.40;85.58
13033;BME280;6583;42.632;23.298;2023-04-24T01:44:52;70494.03;;;-146.40;86.07
13033;BME280;6583;42.632;23.298;2023-04-24T01:47:19;70506.16;;;-146.40;86.94
13033;BME280;6583;42.632;23.298;2023-04-24T01:49:47;70502.13;;;-146.40;87.80
13033;BME280;6583;42.632;23.298;2023-04-24T01:52:14;70512.25;;;-146.40;87.73
13033;BME280;6583;42.632;23.298;2023-04-24T01:54:41;70500.09;;;-146.40;87.94
13033;BME280;6583;42.632;23.298;2023-04-24T01:57:09;70489.97;;;-146.40;88.46
13033;BME280;6583;42.632;23.298;2023-04-24T01:59:36;70485.94;;;-146.40;88.76
13033;BME280;6583;42.632;23.298;2023-04-24T02:02:03;70475.81;;;-146.40;87.13
13033;BME280;6583;42.632;23.298;2023-04-24T02:04:30;70489.97;;;-146.40;85.85
13033;BME280;6583;42.632;23.298;2023-04-24T02:06:56;70498.06;;;-146.40;86.32
13033;BME280;6583;42.632;23.298;2023-04-24T02:09:23;70494.03;;;-146.40;86.81
13033;BME280;6583;42.632;23.298;2023-04-24T02:11:50;70506.16;;;-146.40;86.69
13033;BME280;6583;42.632;23.298;2023-04-24T02:14:18;70508.19;;;-146.40;86.92
13033;BME280;6583;42.632;23.298;2023-04-24T02:16:44;70558.78;;;-146.40;88.04
13033;BME280;6583;42.632;23.298;2023-04-24T02:19:11;70583.06;;;-146.40;90.07
13033;BME280;6583;42.632;23.298;2023-04-24T02:21:38;70583.06;;;-146.40;90.93
13033;BME280;6583;42.632;23.298;2023-04-24T02:24:04;70574.97;;;-146.40;92.13
13033;BME280;6583;42.632;23.298;2023-04-24T02:26:31;70570.91;;;-146.40;92.48
13033;BME280;6583;42.632;23.298;2023-04-24T02:28:58;70564.84;;;-146.40;92.65
13033;BME280;6583;42.632;23.298;2023-04-24T02:31:26;70548.66;;;-146.40;92.87
13033;BME280;6583;42.632;23.298;2023-04-24T02:33:53;70550.69;;;-146.40;92.18
13033;BME280;6583;42.632;23.298;2023-04-24T02:36:19;70548.66;;;-146.40;92.25
13033;BME280;6583;42.632;23.298;2023-04-24T02:38:46;70538.53;;;-146.40;92.38
13033;BME280;6583;42.632;23.298;2023-04-24T02:41:13;70536.50;;;-146.40;92.09
13033;BME280;6583;42.632;23.298;2023-04-24T02:43:39;70540.56;;;-146.40;92.40
13033;BME280;6583;42.632;23.298;2023-04-24T02:46:06;70534.50;;;-146.40;92.47
13033;BME280;6583;42.632;23.298;2023-04-24T02:48:34;70530.44;;;-146.40;92.44
13033;BME280;6583;42.632;23.298;2023-04-24T02:51:00;70526.41;;;-146.40;91.80
13033;BME280;6583;42.632;23.298;2023-04-24T02:53:30;70518.31;;;-146.40;92.41
13033;BME280;6583;42.632;23.298;2023-04-24T02:55:56;70508.19;;;-146.40;92.06
13033;BME280;6583;42.632;23.298;2023-04-24T02:58:23;70494.03;;;-146.40;91.52
13033;BME280;6583;42.632;23.298;2023-04-24T03:00:53;70489.97;;;-146.40;89.65
13033;BME280;6583;42.632;23.298;2023-04-24T03:03:20;70494.03;;;-146.40;88.63
13033;BME280;6583;42.632;23.298;2023-04-24T03:05:48;70483.91;;;-146.40;88.59
13033;BME280;6583;42.632;23.298;2023-04-24T03:08:16;70504.16;;;-146.40;88.15
13033;BME280;6583;42.632;23.298;2023-04-24T03:10:43;70498.06;;;-146.40;88.40
13033;BME280;6583;42.632;23.298;2023-04-24T03:13:09;70508.19;;;-146.40;87.76
13033;BME280;6583;42.632;23.298;2023-04-24T03:15:36;70522.34;;;-146.40;88.07
13033;BME280;6583;42.632;23.298;2023-04-24T03:18:03;70512.25;;;-146.40;87.91
13033;BME280;6583;42.632;23.298;2023-04-24T03:20:29;70506.16;;;-146.40;86.89
13033;BME280;6583;42.632;23.298;2023-04-24T03:22:57;70510.22;;;-146.40;86.54
13033;BME280;6583;42.632;23.298;2023-04-24T03:25:24;70508.19;;;-146.40;86.62
13033;BME280;6583;42.632;23.298;2023-04-24T03:27:51;70516.28;;;-146.40;87.04
13033;BME280;6583;42.632;23.298;2023-04-24T03:30:19;70522.34;;;-146.40;88.07
13033;BME280;6583;42.632;23.298;2023-04-24T03:32:46;70508.19;;;-146.40;89.31
13033;BME280;6583;42.632;23.298;2023-04-24T03:35:12;70500.09;;;-146.40;88.00
13033;BME280;6583;42.632;23.298;2023-04-24T03:37:39;70498.06;;;-146.40;87.14
13033;BME280;6583;42.632;23.298;2023-04-24T03:40:08;70504.16;;;-146.40;87.11
13033;BME280;6583;42.632;23.298;2023-04-24T03:42:35;70496.06;;;-146.40;88.00
13033;BME280;6583;42.632;23.298;2023-04-24T03:45:02;70498.06;;;-146.40;87.64
13033;BME280;6583;42.632;23.298;2023-04-24T03:47:29;70494.03;;;-146.40;88.39
13033;BME280;6583;42.632;23.298;2023-04-24T03:49:56;70485.94;;;-146.40;88.34
13033;BME280;6583;42.632;23.298;2023-04-24T03:52:22;70473.78;;;-146.40;87.82
13033;BME280;6583;42.632;23.298;2023-04-24T03:54:49;70469.75;;;-146.40;87.32
13033;BME280;6583;42.632;23.298;2023-04-24T03:57:17;70477.84;;;-146.40;87.55
13033;BME280;6583;42.632;23.298;2023-04-24T03:59:44;70477.84;;;-146.40;88.10
13033;BME280;6583;42.632;23.298;2023-04-24T04:02:10;70500.09;;;-146.40;88.75
13033;BME280;6583;42.632;23.298;2023-04-24T04:04:37;70504.16;;;-146.40;89.73
13033;BME280;6583;42.632;23.298;2023-04-24T04:07:03;70494.03;;;-146.40;90.28
13033;BME280;6583;42.632;23.298;2023-04-24T04:09:30;70489.97;;;-146.40;90.80
13033;BME280;6583;42.632;23.298;2023-04-24T04:11:57;70477.84;;;-146.40;90.84
13033;BME280;6583;42.632;23.298;2023-04-24T04:14:27;70473.78;;;-146.40;91.14
13033;BME280;6583;42.632;23.298;2023-04-24T04:16:53;70463.69;;;-146.40;90.58
13033;BME280;6583;42.632;23.298;2023-04-24T04:19:20;70457.59;;;-146.40;90.64
13033;BME280;6583;42.632;23.298;2023-04-24T04:21:47;70447.50;;;-146.40;91.08
13033;BME280;6583;42.632;23.298;2023-04-24T04:24:17;70449.53;;;-146.40;91.65
13033;BME280;6583;42.632;23.298;2023-04-24T04:26:44;70435.34;;;-146.40;91.47
13033;BME280;6583;42.632;23.298;2023-04-24T04:29:12;70421.19;;;-146.40;90.91
13033;BME280;6583;42.632;23.298;2023-04-24T04:31:40;70413.09;;;-146.40;90.49
13033;BME280;6583;42.632;23.298;2023-04-24T04:34:09;70409.06;;;-146.40;90.11
13033;BME280;6583;42.632;23.298;2023-04-24T04:36:36;70402.97;;;-146.40;89.00
13033;BME280;6583;42.632;23.298;2023-04-24T04:39:05;70400.97;;;-146.40;88.09
13033;BME280;6583;42.632;23.298;2023-04-24T04:41:32;70409.06;;;-146.40;87.64
13033;BME280;6583;42.632;23.298;2023-04-24T04:44:00;70413.09;;;-146.40;87.98
13033;BME280;6583;42.632;23.298;2023-04-24T04:46:30;70431.31;;;-146.40;87.31
13033;BME280;6583;42.632;23.298;2023-04-24T04:49:00;70445.47;;;-146.40;88.28
13033;BME280;6583;42.632;23.298;2023-04-24T04:51:28;70449.53;;;-146.40;88.30
13033;BME280;6583;42.632;23.298;2023-04-24T04:53:54;70445.47;;;-146.40;88.00
13033;BME280;6583;42.632;23.298;2023-04-24T04:56:21;70445.47;;;-146.40;85.98
13033;BME280;6583;42.632;23.298;2023-04-24T04:58:48;70445.47;;;-146.40;86.06
13033;BME280;6583;42.632;23.298;2023-04-24T05:01:14;70433.34;;;-146.40;84.04
13033;BME280;6583;42.632;23.298;2023-04-24T05:03:41;70429.28;;;-146.40;84.00
13033;BME280;6583;42.632;23.298;2023-04-24T05:06:09;70433.34;;;-146.40;82.22
13033;BME280;6583;42.632;23.298;2023-04-24T05:08:36;70431.31;;;-146.40;83.49
13033;BME280;6583;42.632;23.298;2023-04-24T05:11:03;70431.31;;;-146.40;83.17
13033;BME280;6583;42.632;23.298;2023-04-24T05:13:29;70425.25;;;-146.40;84.13
13033;BME280;6583;42.632;23.298;2023-04-24T05:15:57;70417.16;;;-146.40;83.34
13033;BME280;6583;42.632;23.298;2023-04-24T05:18:23;70411.06;;;-146.40;83.87
13033;BME280;6583;42.632;23.298;2023-04-24T05:20:50;70413.09;;;-146.40;83.88
13033;BME280;6583;42.632;23.298;2023-04-24T05:23:18;70405.00;;;-146.40;83.53
13033;BME280;6583;42.632;23.298;2023-04-24T05:25:45;70402.97;;;-146.40;82.30
13033;BME280;6583;42.632;23.298;2023-04-24T05:28:11;70402.97;;;-146.40;81.63
13033;BME280;6583;42.632;23.298;2023-04-24T05:30:38;70396.91;;;-146.40;82.49
13033;BME280;6583;42.632;23.298;2023-04-24T05:33:05;70400.97;;;-146.40;82.80
13033;BME280;6583;42.632;23.298;2023-04-24T05:35:32;70407.03;;;-146.40;80.97
13033;BME280;6583;42.632;23.298;2023-04-24T05:37:58;70415.13;;;-146.40;80.10
13033;BME280;6583;42.632;23.298;2023-04-24T05:40:26;70421.19;;;-146.40;79.48
13033;BME280;6583;42.632;23.298;2023-04-24T05:42:53;70409.06;;;-146.40;81.23
13033;BME280;6583;42.632;23.298;2023-04-24T05:45:20;70394.91;;;-146.40;82.24
13033;BME280;6583;42.632;23.298;2023-04-24T05:47:46;70376.69;;;-146.40;81.79
13033;BME280;6583;42.632;23.298;2023-04-24T05:50:13;70360.50;;;-146.40;83.01
13033;BME280;6583;42.632;23.298;2023-04-24T05:52:40;70344.31;;;-146.40;80.04
13033;BME280;6583;42.632;23.298;2023-04-24T05:55:07;70324.09;;;-146.40;80.90
13033;BME280;6583;42.632;23.298;2023-04-24T05:57:35;70299.81;;;-146.40;81.07
13033;BME280;6583;42.632;23.298;2023-04-24T06:00:03;70279.56;;;-146.40;76.38
13033;BME280;6583;42.632;23.298;2023-04-24T06:02:30;70265.41;;;-146.40;72.66
13033;BME280;6583;42.632;23.298;2023-04-24T06:04:57;70222.94;;;-146.40;74.51
13033;BME280;6583;42.632;23.298;2023-04-24T06:07:24;70210.78;;;-146.40;71.46
13033;BME280;6583;42.632;23.298;2023-04-24T06:09:52;70198.66;;;-146.40;71.36
13033;BME280;6583;42.632;23.298;2023-04-24T06:12:19;70222.94;;;-146.40;70.01
13033;BME280;6583;42.632;23.298;2023-04-24T06:14:47;70237.09;;;-146.40;69.44
13033;BME280;6583;42.632;23.298;2023-04-24T06:17:13;70229.00;;;-146.40;71.68
13033;BME280;6583;42.632;23.298;2023-04-24T06:19:40;70220.91;;;-146.40;72.72
13033;BME280;6583;42.632;23.298;2023-04-24T06:22:07;70216.84;;;-146.40;69.00
13033;BME280;6583;42.632;23.298;2023-04-24T06:24:33;70214.84;;;-146.40;70.61
13033;BME280;6583;42.632;23.298;2023-04-24T06:27:00;70198.66;;;-146.40;69.64
13033;BME280;6583;42.632;23.298;2023-04-24T06:29:27;70186.50;;;-146.40;68.49
13033;BME280;6583;42.632;23.298;2023-04-24T06:31:55;70156.16;;;-146.40;66.76
13033;BME280;6583;42.632;23.298;2023-04-24T06:34:21;70146.06;;;-146.40;65.27
13033;BME280;6583;42.632;23.298;2023-04-24T06:36:48;70129.88;;;-146.40;62.50
13033;BME280;6583;42.632;23.298;2023-04-24T06:39:15;70117.72;;;-146.40;61.44
13033;BME280;6583;42.632;23.298;2023-04-24T06:41:41;70111.66;;;-146.40;61.35
13033;BME280;6583;42.632;23.298;2023-04-24T06:44:08;70105.59;;;-146.40;60.69
13033;BME280;6583;42.632;23.298;2023-04-24T06:46:35;70091.44;;;-146.40;61.83
13033;BME280;6583;42.632;23.298;2023-04-24T06:49:03;70085.38;;;-146.40;60.72
13033;BME280;6583;42.632;23.298;2023-04-24T06:51:29;70075.25;;;-146.40;57.79
13033;BME280;6583;42.632;23.298;2023-04-24T06:53:58;70075.25;;;-146.40;57.46
13033;BME280;6583;42.632;23.298;2023-04-24T06:56:26;70055.03;;;-146.40;58.24
13033;BME280;6583;42.632;23.298;2023-04-24T06:58:54;70048.97;;;-146.40;55.04
13033;BME280;6583;42.632;23.298;2023-04-24T07:01:21;70040.88;;;-146.40;53.79
13033;BME280;6583;42.632;23.298;2023-04-24T07:03:47;70032.78;;;-146.40;55.03
13033;BME280;6583;42.632;23.298;2023-04-24T07:06:15;70010.53;;;-146.40;55.75
13033;BME280;6583;42.632;23.298;2023-04-24T07:08:43;70016.59;;;-146.40;52.58
13033;BME280;6583;42.632;23.298;2023-04-24T07:11:10;69998.38;;;-146.40;52.19
13033;BME280;6583;42.632;23.298;2023-04-24T07:13:37;69988.25;;;-146.40;49.45
13033;BME280;6583;42.632;23.298;2023-04-24T07:16:07;69978.16;;;-146.40;48.27
13033;BME280;6583;42.632;23.298;2023-04-24T07:18:33;69976.13;;;-146.40;50.94
13033;BME280;6583;42.632;23.298;2023-04-24T07:21:02;69970.06;;;-146.40;49.66
13033;BME280;6583;42.632;23.298;2023-04-24T07:23:30;69988.25;;;-146.40;49.94
13033;BME280;6583;42.632;23.298;2023-04-24T07:25:57;69980.19;;;-146.40;50.33
13033;BME280;6583;42.632;23.298;2023-04-24T07:28:23;69976.13;;;-146.40;51.93
13033;BME280;6583;42.632;23.298;2023-04-24T07:30:51;69978.16;;;-146.40;51.19
13033;BME280;6583;42.632;23.298;2023-04-24T07:33:19;69980.19;;;-146.40;49.92
13033;BME280;6583;42.632;23.298;2023-04-24T07:35:46;69968.03;;;-146.40;49.70
13033;BME280;6583;42.632;23.298;2023-04-24T07:38:12;69959.94;;;-146.40;50.63
13033;BME280;6583;42.632;23.298;2023-04-24T07:40:41;69925.56;;;-146.40;50.01
13033;BME280;6583;42.632;23.298;2023-04-24T07:43:07;69919.50;;;-146.40;49.94
13033;BME280;6583;42.632;23.298;2023-04-24T07:45:34;69899.25;;;-146.40;47.29
13033;BME280;6583;42.632;23.298;2023-04-24T07:48:02;69870.94;;;-146.40;49.78
13033;BME280;6583;42.632;23.298;2023-04-24T07:50:29;69844.66;;;-146.40;50.40
13033;BME280;6583;42.632;23.298;2023-04-24T07:52:56;69826.44;;;-146.40;46.62
13033;BME280;6583;42.632;23.298;2023-04-24T07:55:22;69802.16;;;-146.40;46.79
13033;BME280;6583;42.632;23.298;2023-04-24T07:57:51;69790.03;;;-146.40;46.26
13033;BME280;6583;42.632;23.298;2023-04-24T08:00:18;69785.97;;;-146.40;45.43
13033;BME280;6583;42.632;23.298;2023-04-24T08:02:45;69777.91;;;-146.40;44.79
13033;BME280;6583;42.632;23.298;2023-04-24T08:05:11;69759.69;;;-146.40;45.53
13033;BME280;6583;42.632;23.298;2023-04-24T08:07:38;69757.66;;;-146.40;45.20
13033;BME280;6583;42.632;23.298;2023-04-24T08:10:06;69745.53;;;-146.40;44.12
13033;BME280;6583;42.632;23.298;2023-04-24T08:12:33;69743.50;;;-146.40;44.95
13033;BME280;6583;42.632;23.298;2023-04-24T08:15:01;69729.34;;;-146.40;45.60
13033;BME280;6583;42.632;23.298;2023-04-24T08:17:27;69735.41;;;-146.40;43.10
13033;BME280;6583;42.632;23.298;2023-04-24T08:19:54;69741.47;;;-146.40;43.65
13033;BME280;6583;42.632;23.298;2023-04-24T08:22:26;69757.66;;;-146.40;42.83
13033;BME280;6583;42.632;23.298;2023-04-24T08:24:53;69757.66;;;-146.40;44.23
13033;BME280;6583;42.632;23.298;2023-04-24T08:27:19;69755.63;;;-146.40;44.32
13033;BME280;6583;42.632;23.298;2023-04-24T08:29:46;69735.41;;;-146.40;44.26
13033;BME280;6583;42.632;23.298;2023-04-24T08:32:14;69741.47;;;-146.40;43.09
13033;BME280;6583;42.632;23.298;2023-04-24T08:34:41;69763.72;;;-146.40;43.54
13033;BME280;6583;42.632;23.298;2023-04-24T08:37:08;69749.56;;;-146.40;43.30
13033;BME280;6583;42.632;23.298;2023-04-24T08:39:34;69761.72;;;-146.40;44.79
13033;BME280;6583;42.632;23.298;2023-04-24T08:42:01;69737.44;;;-146.40;44.32
13033;BME280;6583;42.632;23.298;2023-04-24T08:44:33;69725.31;;;-146.40;43.35
13033;BME280;6583;42.632;23.298;2023-04-24T08:47:01;69713.16;;;-146.40;44.47
13033;BME280;6583;42.632;23.298;2023-04-24T08:49:29;69688.88;;;-146.40;42.05
13033;BME280;6583;42.632;23.298;2023-04-24T08:51:57;69656.53;;;-146.40;42.97
13033;BME280;6583;42.632;23.298;2023-04-24T08:54:25;69648.44;;;-146.40;42.04
13033;BME280;6583;42.632;23.298;2023-04-24T08:56:53;69640.34;;;-146.40;42.13
13033;BME280;6583;42.632;23.298;2023-04-24T08:59:21;69648.44;;;-146.40;41.95
13033;BME280;6583;42.632;23.298;2023-04-24T09:01:49;69656.53;;;-146.40;42.31
13033;BME280;6583;42.632;23.298;2023-04-24T09:04:17;69640.34;;;-146.40;43.14
13033;BME280;6583;42.632;23.298;2023-04-24T09:06:49;69648.44;;;-146.40;42.34
13033;BME280;6583;42.632;23.298;2023-04-24T09:09:16;69666.63;;;-146.40;42.83
13033;BME280;6583;42.632;23.298;2023-04-24T09:11:43;69652.47;;;-146.40;43.84
13033;BME280;6583;42.632;23.298;2023-04-24T09:14:11;69632.25;;;-146.40;42.94
13033;BME280;6583;42.632;23.298;2023-04-24T09:16:37;69612.03;;;-146.40;42.45
13033;BME280;6583;42.632;23.298;2023-04-24T09:19:04;69610.00;;;-146.40;41.57
13033;BME280;6583;42.632;23.298;2023-04-24T09:21:32;69638.31;;;-146.40;40.84
13033;BME280;6583;42.632;23.298;2023-04-24T09:24:02;69624.16;;;-146.40;42.69
13033;BME280;6583;42.632;23.298;2023-04-24T09:26:30;69618.09;;;-146.40;41.83
13033;BME280;6583;42.632;23.298;2023-04-24T09:28:59;69628.22;;;-146.40;42.15
13033;BME280;6583;42.632;23.298;2023-04-24T09:31:27;69620.13;;;-146.40;42.25
13033;BME280;6583;42.632;23.298;2023-04-24T09:33:55;69616.06;;;-146.40;42.80
13033;BME280;6583;42.632;23.298;2023-04-24T09:36:27;69610.00;;;-146.40;43.10
13033;BME280;6583;42.632;23.298;2023-04-24T09:38:57;69595.84;;;-146.40;41.45
13033;BME280;6583;42.632;23.298;2023-04-24T09:41:26;69583.72;;;-146.40;42.71
13033;BME280;6583;42.632;23.298;2023-04-24T09:43:53;69579.66;;;-146.40;40.84
13033;BME280;6583;42.632;23.298;2023-04-24T09:46:20;69575.63;;;-146.40;41.50
13033;BME280;6583;42.632;23.298;2023-04-24T09:48:47;69559.44;;;-146.40;42.22
13033;BME280;6583;42.632;23.298;2023-04-24T09:51:14;69551.34;;;-146.40;41.67
13033;BME280;6583;42.632;23.298;2023-04-24T09:53:45;69537.19;;;-146.40;40.31
13033;BME280;6583;42.632;23.298;2023-04-24T09:56:12;69527.06;;;-146.40;41.50
13033;BME280;6583;42.632;23.298;2023-04-24T09:58:40;69516.97;;;-146.40;41.51
13033;BME280;6583;42.632;23.298;2023-04-24T10:01:07;69496.75;;;-146.40;40.37
13033;BME280;6583;42.632;23.298;2023-04-24T10:03:34;69486.63;;;-146.40;40.02
13033;BME280;6583;42.632;23.298;2023-04-24T10:06:01;69474.50;;;-146.40;39.85
13033;BME280;6583;42.632;23.298;2023-04-24T10:08:34;69460.34;;;-146.40;40.78
13033;BME280;6583;42.632;23.298;2023-04-24T10:11:01;69450.22;;;-146.40;40.71
13033;BME280;6583;42.632;23.298;2023-04-24T10:13:28;69446.19;;;-146.40;39.20
13033;BME280;6583;42.632;23.298;2023-04-24T10:15:59;69430.00;;;-146.40;39.71
13033;BME280;6583;42.632;23.298;2023-04-24T10:18:27;69438.09;;;-146.40;40.02
13033;BME280;6583;42.632;23.298;2023-04-24T10:20:54;69438.09;;;-146.40;39.69
13033;BME280;6583;42.632;23.298;2023-04-24T10:23:21;69415.84;;;-146.40;39.49
13033;BME280;6583;42.632;23.298;2023-04-24T10:25:49;69401.69;;;-146.40;39.40
13033;BME280;6583;42.632;23.298;2023-04-24T10:28:18;69391.56;;;-146.40;38.33
13033;BME280;6583;42.632;23.298;2023-04-24T10:30:45;69385.50;;;-146.40;39.18
13033;BME280;6583;42.632;23.298;2023-04-24T10:33:14;69373.38;;;-146.40;37.77
13033;BME280;6583;42.632;23.298;2023-04-24T10:35:45;69379.44;;;-146.40;38.78
13033;BME280;6583;42.632;23.298;2023-04-24T10:38:16;69373.38;;;-146.40;38.66
13033;BME280;6583;42.632;23.298;2023-04-24T10:40:45;69357.19;;;-146.40;37.90
13033;BME280;6583;42.632;23.298;2023-04-24T10:43:17;69341.00;;;-146.40;39.03
13033;BME280;6583;42.632;23.298;2023-04-24T10:46:00;69341.00;;;-146.40;37.72
13033;BME280;6583;42.632;23.298;2023-04-24T10:48:30;69328.88;;;-146.40;37.31
13033;BME280;6583;42.632;23.298;2023-04-24T10:50:58;69328.88;;;-146.40;36.45
13033;BME280;6583;42.632;23.298;2023-04-24T10:53:28;69324.81;;;-146.40;37.41
13033;BME280;6583;42.632;23.298;2023-04-24T10:55:58;69322.78;;;-146.40;36.14
13033;BME280;6583;42.632;23.298;2023-04-24T10:58:35;69310.66;;;-146.40;36.58
13033;BME280;6583;42.632;23.298;2023-04-24T11:01:03;69300.56;;;-146.40;35.61
13033;BME280;6583;42.632;23.298;2023-04-24T11:03:34;69306.63;;;-146.40;35.34
13033;BME280;6583;42.632;23.298;2023-04-24T11:06:02;69310.66;;;-146.40;36.16
13033;BME280;6583;42.632;23.298;2023-04-24T11:08:31;69304.59;;;-146.40;35.08
13033;BME280;6583;42.632;23.298;2023-04-24T11:11:00;69320.78;;;-146.40;36.27
13033;BME280;6583;42.632;23.298;2023-04-24T11:16:42;69320.78;;;-146.40;36.43
13033;BME280;6583;42.632;23.298;2023-04-24T11:19:18;69332.91;;;-146.40;37.56
13033;BME280;6583;42.632;23.298;2023-04-24T11:21:47;69353.13;;;-146.40;36.92
13033;BME280;6583;42.632;23.298;2023-04-24T11:24:24;69421.91;;;-146.40;37.44
13033;BME280;6583;42.632;23.298;2023-04-24T11:26:51;69430.00;;;-146.40;42.40
13033;BME280;6583;42.632;23.298;2023-04-24T11:29:20;69462.34;;;-146.40;43.91
13033;BME280;6583;42.632;23.298;2023-04-24T11:31:47;69488.66;;;-146.40;43.63
13033;BME280;6583;42.632;23.298;2023-04-24T11:34:18;69537.19;;;-146.40;53.55
13033;BME280;6583;42.632;23.298;2023-04-24T11:36:45;69527.06;;;-146.40;56.21
13033;BME280;6583;42.632;23.298;2023-04-24T11:39:13;69533.16;;;-146.40;61.42
13033;BME280;6583;42.632;23.298;2023-04-24T11:41:40;69537.19;;;-146.40;60.45
13033;BME280;6583;42.632;23.298;2023-04-24T11:44:08;69545.28;;;-146.40;65.14
13033;BME280;6583;42.632;23.298;2023-04-24T11:46:35;69559.44;;;-146.40;65.48
13033;BME280;6583;42.632;23.298;2023-04-24T11:49:03;69569.56;;;-146.40;71.86
13033;BME280;6583;42.632;23.298;2023-04-24T11:51:32;69579.66;;;-146.40;76.30
13033;BME280;6583;42.632;23.298;2023-04-24T11:53:59;69612.03;;;-146.40;62.05
13033;BME280;6583;42.632;23.298;2023-04-24T11:56:26;69634.28;;;-146.40;62.89
13033;BME280;6583;42.632;23.298;2023-04-24T11:58:54;69624.16;;;-146.40;60.19
13033;BME280;6583;42.632;23.298;2023-04-24T12:01:21;69624.16;;;-146.40;65.16
13033;BME280;6583;42.632;23.298;2023-04-24T12:03:49;69616.06;;;-146.40;65.84
13033;BME280;6583;42.632;23.298;2023-04-24T12:06:16;69603.94;;;-146.40;56.52
13033;BME280;6583;42.632;23.298;2023-04-24T12:08:47;69593.81;;;-146.40;57.24
13033;BME280;6583;42.632;23.298;2023-04-24T12:11:16;69587.75;;;-146.40;55.12
13033;BME280;6583;42.632;23.298;2023-04-24T12:13:44;69575.63;;;-146.40;52.52
13033;BME280;6583;42.632;23.298;2023-04-24T12:16:11;69561.47;;;-146.40;48.69
13033;BME280;6583;42.632;23.298;2023-04-24T12:18:42;69561.47;;;-146.40;49.47
13033;BME280;6583;42.632;23.298;2023-04-24T12:21:20;69539.22;;;-146.40;48.89
13033;BME280;6583;42.632;23.298;2023-04-24T12:23:49;69541.25;;;-146.40;47.40
13033;BME280;6583;42.632;23.298;2023-04-24T12:26:16;69537.19;;;-146.40;51.72
13033;BME280;6583;42.632;23.298;2023-04-24T12:28:47;69533.16;;;-146.40;51.16
13033;BME280;6583;42.632;23.298;2023-04-24T12:31:15;69512.91;;;-146.40;50.62
13033;BME280;6583;42.632;23.298;2023-04-24T12:33:42;69494.72;;;-146.40;49.03
13033;BME280;6583;42.632;23.298;2023-04-24T12:36:10;69486.63;;;-146.40;46.81
13033;BME280;6583;42.632;23.298;2023-04-24T12:38:38;69470.44;;;-146.40;46.79
13033;BME280;6583;42.632;23.298;2023-04-24T12:41:08;69448.19;;;-146.40;44.89
13033;BME280;6583;42.632;23.298;2023-04-24T12:43:36;69423.94;;;-146.40;42.84
13033;BME280;6583;42.632;23.298;2023-04-24T12:46:03;69401.69;;;-146.40;43.10